Terminal Aerodrome Forecast
Issued by NWS

Home | Current Version | Previous Version | Text Only | Print | Product List | Glossary On
Versions: 1 2 3 4 5 6 7 8 9 10 11 12 13 14 15 16 17 18 19 20
000
FTUS46 KOTX 262331
TAFMWH
TAF
KMWH 262331Z 2700/2724 17005KT P6SM BKN250
     FM271000 04007KT P6SM SCT012 OVC050
     FM271500 07005KT P6SM VCSH OVC025
     FM271800 15002KT 3SM -SN BR OVC015
     FM272100 17005KT 6SM BR OVC007=

USA.gov is the U.S. government's official web portal to all federal, state and local government web resources and services.